Airfield :
LOGIN :

Register | Disclaimer

   EN    FR    IT 

 










Legend :    VFR   Marginal VFR   IFR   Intensive IFR   Very Intensive IFR
Visi :
Ceiling :
>= 8 km
>= 3000ft
5 to 8 km
1000 to 3000 ft
1500m to 5 km
500 to 1000 ft
800 to 1500m
200 to 500 ft
< 800m
< 200 ft
Symbols :   Thunderstorms  Fog  Heavy snow  Heavy precipitations  Wind > 20 kt
SIGMETs :     Misc.  Thunderstorms  Icing  Turbulence  Mountain Waves  Volcanic Ashes






- Airport Elevation : 341 ft


EPMO - Modlin

CURRENT METAR :
  • 011430Z 33008KT CAVOK 18/15 Q1007

EXPIRED METARs :
  • 011400Z 31006KT CAVOK 18/15 Q1007
  • 011330Z 30006KT 6000 -RA FEW006 18/15 Q1007
  • 011300Z 29005KT 260V320 9999 -RA FEW032 20/15 Q1008
  • 011230Z 28004KT 180V320 9999 -RA FEW035 21/14 Q1008
  • 011200Z 23005KT 9999 -RA FEW031 22/13 Q1008

TAF COR TAF EPMO
Valid from the 01 at 12:00 until the 02 at 12:00 UTC


011202Z 0112/0212 VRB04KT 9999 -RA SCT045
BECMG 0115/0117 36010KT
PROB40
TEMPO 0116/0122 3000 TSRA SCT014 BKN030CB
PROB40
TEMPO 0122/0208 29015G25KT BKN007 BKN014
BECMG 0123/0202 28012KT
TEMPO 0208/0212 27015G25KT SCT030TCU



MET'MAP, your aeronautical weather chart ! - Copyright ORBIFLY December 2007 - Disclaimer

ORBIFLY MET'MAP TEAM :

Programming & Development : Alexandra Zaïnal
Concept & original design : Baudouin d'Aumeries
Assistance for programming : Marc-Olivier Méhu
Technical & hardware support : Manuel Goepfert

Contact : metmap@orbifly.com




SOURCES & CREDITS :

   NOAA